Richmond, Utah
Current Conditions -  °F | °C
As of 11:51 PM on Friday 19 Dec 2014 (Local Time) from KLGU Reporting Station
Overcast Overcast  
Wind Chill: 31°   Ceiling: 5000
Heat Index: 35°   Visibility: 7mi
Dew Point: 33°   Wind: 5mph
Humidity: 92%   Direction: 340°NNW
Pressure: 30.13"   Gusts: NA
Location:  41.92°N, 111.81°W
Report Text: KLGU 200651Z AUTO 34004KT 7SM OVC050 02/01 A3013 RMK AO2 UPE20RAB0557E07 SLP211 P0000 T00170006 400611044
Loading
Personal Weather Stations






























Interactive Weather Map New forecast layout! Learn more

10-Day Weather Forecast

Advertisements
Track Severe Weather on mobile